sensor_id;sensor_type;location;lat;lon;timestamp;temperature;humidity
22161;DHT22;49035;48.812;11.762;2022-12-18T00:01:03;-5.80;99.90
22161;DHT22;49035;48.812;11.762;2022-12-18T00:03:33;-5.80;99.90
22161;DHT22;49035;48.812;11.762;2022-12-18T00:05:58;-5.60;99.90
22161;DHT22;49035;48.812;11.762;2022-12-18T00:08:24;-5.70;99.90
22161;DHT22;49035;48.812;11.762;2022-12-18T00:10:50;-5.60;99.90
22161;DHT22;49035;48.812;11.762;2022-12-18T00:13:16;-5.60;99.90
22161;DHT22;49035;48.812;11.762;2022-12-18T00:15:41;-5.60;99.90
22161;DHT22;49035;48.812;11.762;2022-12-18T00:18:07;-5.50;99.90
22161;DHT22;49035;48.812;11.762;2022-12-18T00:20:38;-5.60;99.90
22161;DHT22;49035;48.812;11.762;2022-12-18T00:23:04;-5.70;99.90
22161;DHT22;49035;48.812;11.762;2022-12-18T00:25:33;-5.70;99.90
22161;DHT22;49035;48.812;11.762;2022-12-18T00:27:58;-5.50;99.90
22161;DHT22;49035;48.812;11.762;2022-12-18T00:30:24;-5.50;99.90
22161;DHT22;49035;48.812;11.762;2022-12-18T00:32:50;-5.40;99.90
22161;DHT22;49035;48.812;11.762;2022-12-18T00:35:15;-5.50;99.90
22161;DHT22;49035;48.812;11.762;2022-12-18T00:37:41;-5.50;99.90
22161;DHT22;49035;48.812;11.762;2022-12-18T00:40:07;-5.50;99.90
22161;DHT22;49035;48.812;11.762;2022-12-18T00:42:33;-5.50;99.90
22161;DHT22;49035;48.812;11.762;2022-12-18T00:45:17;-5.40;99.90
22161;DHT22;49035;48.812;11.762;2022-12-18T00:47:43;-5.30;99.90
22161;DHT22;49035;48.812;11.762;2022-12-18T00:50:09;-5.40;99.90
22161;DHT22;49035;48.812;11.762;2022-12-18T00:52:34;-5.30;99.90
22161;DHT22;49035;48.812;11.762;2022-12-18T00:55:00;-5.20;99.90
22161;DHT22;49035;48.812;11.762;2022-12-18T00:57:26;-5.30;99.90
22161;DHT22;49035;48.812;11.762;2022-12-18T00:59:51;-5.30;99.90
22161;DHT22;49035;48.812;11.762;2022-12-18T01:02:17;-5.30;99.90
22161;DHT22;49035;48.812;11.762;2022-12-18T01:04:42;-5.30;99.90
22161;DHT22;49035;48.812;11.762;2022-12-18T01:07:08;-5.30;99.90
22161;DHT22;49035;48.812;11.762;2022-12-18T01:09:34;-5.30;99.90
22161;DHT22;49035;48.812;11.762;2022-12-18T01:12:00;-5.30;99.90
22161;DHT22;49035;48.812;11.762;2022-12-18T01:14:25;-5.30;99.90
22161;DHT22;49035;48.812;11.762;2022-12-18T01:16:51;-5.30;99.90
22161;DHT22;49035;48.812;11.762;2022-12-18T01:19:16;-5.30;99.90
22161;DHT22;49035;48.812;11.762;2022-12-18T01:21:42;-5.30;99.90
22161;DHT22;49035;48.812;11.762;2022-12-18T01:24:11;-5.30;99.90
22161;DHT22;49035;48.812;11.762;2022-12-18T01:26:37;-5.30;99.90
22161;DHT22;49035;48.812;11.762;2022-12-18T01:29:03;-5.30;99.90
22161;DHT22;49035;48.812;11.762;2022-12-18T01:31:31;-5.40;99.90
22161;DHT22;49035;48.812;11.762;2022-12-18T01:33:59;-5.20;99.90
22161;DHT22;49035;48.812;11.762;2022-12-18T01:36:29;-5.30;99.90
22161;DHT22;49035;48.812;11.762;2022-12-18T01:38:55;-5.40;99.90
22161;DHT22;49035;48.812;11.762;2022-12-18T01:41:26;-5.40;99.90
22161;DHT22;49035;48.812;11.762;2022-12-18T01:43:55;-5.30;99.90
22161;DHT22;49035;48.812;11.762;2022-12-18T01:46:23;-5.10;99.90
22161;DHT22;49035;48.812;11.762;2022-12-18T01:48:58;-5.20;99.90
22161;DHT22;49035;48.812;11.762;2022-12-18T01:51:26;-5.20;99.90
22161;DHT22;49035;48.812;11.762;2022-12-18T01:53:52;-5.30;99.90
22161;DHT22;49035;48.812;11.762;2022-12-18T01:56:20;-5.20;99.90
22161;DHT22;49035;48.812;11.762;2022-12-18T02:01:24;-4.90;99.90
22161;DHT22;49035;48.812;11.762;2022-12-18T02:03:51;-4.80;99.90
22161;DHT22;49035;48.812;11.762;2022-12-18T02:06:40;-4.90;99.90
22161;DHT22;49035;48.812;11.762;2022-12-18T02:09:17;-4.80;99.90
22161;DHT22;49035;48.812;11.762;2022-12-18T02:12:11;-4.90;99.90
22161;DHT22;49035;48.812;11.762;2022-12-18T02:17:23;-4.80;99.90
22161;DHT22;49035;48.812;11.762;2022-12-18T02:23:17;-4.80;99.90
22161;DHT22;49035;48.812;11.762;2022-12-18T02:28:46;-4.80;99.90
22161;DHT22;49035;48.812;11.762;2022-12-18T02:31:19;-4.80;99.90
22161;DHT22;49035;48.812;11.762;2022-12-18T02:33:47;-4.70;99.90
22161;DHT22;49035;48.812;11.762;2022-12-18T02:36:15;-4.80;99.90
22161;DHT22;49035;48.812;11.762;2022-12-18T02:38:42;-4.80;99.90
22161;DHT22;49035;48.812;11.762;2022-12-18T02:41:10;-4.70;99.90
22161;DHT22;49035;48.812;11.762;2022-12-18T02:43:35;-4.70;99.90
22161;DHT22;49035;48.812;11.762;2022-12-18T02:48:57;-4.70;99.90
22161;DHT22;49035;48.812;11.762;2022-12-18T02:51:37;-4.70;99.90
22161;DHT22;49035;48.812;11.762;2022-12-18T02:56:51;-4.60;99.90
22161;DHT22;49035;48.812;11.762;2022-12-18T02:59:41;-4.60;99.90
22161;DHT22;49035;48.812;11.762;2022-12-18T03:02:43;-4.60;99.90
22161;DHT22;49035;48.812;11.762;2022-12-18T03:05:18;-4.60;99.90
22161;DHT22;49035;48.812;11.762;2022-12-18T03:07:53;-4.70;99.90
22161;DHT22;49035;48.812;11.762;2022-12-18T03:10:25;-4.60;99.90
22161;DHT22;49035;48.812;11.762;2022-12-18T03:13:16;-4.60;99.90
22161;DHT22;49035;48.812;11.762;2022-12-18T03:15:48;-4.60;99.90
22161;DHT22;49035;48.812;11.762;2022-12-18T03:18:39;-4.60;99.90
22161;DHT22;49035;48.812;11.762;2022-12-18T03:21:06;-4.60;99.90
22161;DHT22;49035;48.812;11.762;2022-12-18T03:23:36;-4.60;99.90
22161;DHT22;49035;48.812;11.762;2022-12-18T03:26:09;-4.70;99.90
22161;DHT22;49035;48.812;11.762;2022-12-18T03:28:39;-4.60;99.90
22161;DHT22;49035;48.812;11.762;2022-12-18T03:31:09;-4.50;99.90
22161;DHT22;49035;48.812;11.762;2022-12-18T03:33:53;-4.50;99.90
22161;DHT22;49035;48.812;11.762;2022-12-18T03:36:19;-4.50;99.90
22161;DHT22;49035;48.812;11.762;2022-12-18T03:38:45;-4.40;99.90
22161;DHT22;49035;48.812;11.762;2022-12-18T03:46:55;-4.60;99.90
22161;DHT22;49035;48.812;11.762;2022-12-18T03:49:33;-4.60;99.90
22161;DHT22;49035;48.812;11.762;2022-12-18T03:52:10;-4.50;99.90
22161;DHT22;49035;48.812;11.762;2022-12-18T03:54:37;-4.50;99.90
22161;DHT22;49035;48.812;11.762;2022-12-18T03:57:11;-4.50;99.90
22161;DHT22;49035;48.812;11.762;2022-12-18T03:59:39;-4.50;99.90
22161;DHT22;49035;48.812;11.762;2022-12-18T04:02:06;-4.50;99.90
22161;DHT22;49035;48.812;11.762;2022-12-18T04:04:34;-4.50;99.90
22161;DHT22;49035;48.812;11.762;2022-12-18T04:07:02;-4.40;99.90
22161;DHT22;49035;48.812;11.762;2022-12-18T04:09:30;-4.40;99.90
22161;DHT22;49035;48.812;11.762;2022-12-18T04:11:57;-4.40;99.90
22161;DHT22;49035;48.812;11.762;2022-12-18T04:14:22;-4.40;99.90
22161;DHT22;49035;48.812;11.762;2022-12-18T04:16:48;-4.40;99.90
22161;DHT22;49035;48.812;11.762;2022-12-18T04:19:13;-4.40;99.90
22161;DHT22;49035;48.812;11.762;2022-12-18T04:21:39;-4.40;99.90
22161;DHT22;49035;48.812;11.762;2022-12-18T04:24:05;-4.50;99.90
22161;DHT22;49035;48.812;11.762;2022-12-18T04:26:31;-4.40;99.90
22161;DHT22;49035;48.812;11.762;2022-12-18T04:28:56;-4.30;99.90
22161;DHT22;49035;48.812;11.762;2022-12-18T04:31:22;-4.40;99.90
22161;DHT22;49035;48.812;11.762;2022-12-18T04:33:48;-4.40;99.90
22161;DHT22;49035;48.812;11.762;2022-12-18T04:36:13;-4.40;99.90
22161;DHT22;49035;48.812;11.762;2022-12-18T04:38:39;-4.40;99.90
22161;DHT22;49035;48.812;11.762;2022-12-18T04:41:05;-4.40;99.90
22161;DHT22;49035;48.812;11.762;2022-12-18T04:43:30;-4.40;99.90
22161;DHT22;49035;48.812;11.762;2022-12-18T04:46:05;-4.30;99.90
22161;DHT22;49035;48.812;11.762;2022-12-18T04:48:32;-4.20;99.90
22161;DHT22;49035;48.812;11.762;2022-12-18T04:50:57;-4.30;99.90
22161;DHT22;49035;48.812;11.762;2022-12-18T04:53:23;-4.30;99.90
22161;DHT22;49035;48.812;11.762;2022-12-18T04:55:49;-4.40;99.90
22161;DHT22;49035;48.812;11.762;2022-12-18T04:58:15;-4.30;99.90
22161;DHT22;49035;48.812;11.762;2022-12-18T05:00:40;-4.30;99.90
22161;DHT22;49035;48.812;11.762;2022-12-18T05:03:06;-4.30;99.90
22161;DHT22;49035;48.812;11.762;2022-12-18T05:05:31;-4.10;99.90
22161;DHT22;49035;48.812;11.762;2022-12-18T05:07:59;-4.20;99.90
22161;DHT22;49035;48.812;11.762;2022-12-18T05:10:25;-4.30;99.90
22161;DHT22;49035;48.812;11.762;2022-12-18T05:12:50;-4.20;99.90
22161;DHT22;49035;48.812;11.762;2022-12-18T05:15:32;-4.10;99.90
22161;DHT22;49035;48.812;11.762;2022-12-18T05:17:58;-4.20;99.90
22161;DHT22;49035;48.812;11.762;2022-12-18T05:20:25;-4.20;99.90
22161;DHT22;49035;48.812;11.762;2022-12-18T05:22:51;-4.30;99.90
22161;DHT22;49035;48.812;11.762;2022-12-18T05:25:18;-4.30;99.90
22161;DHT22;49035;48.812;11.762;2022-12-18T05:27:44;-4.20;99.90
22161;DHT22;49035;48.812;11.762;2022-12-18T05:30:10;-4.20;99.90
22161;DHT22;49035;48.812;11.762;2022-12-18T05:32:37;-4.10;99.90
22161;DHT22;49035;48.812;11.762;2022-12-18T05:35:05;-4.10;99.90
22161;DHT22;49035;48.812;11.762;2022-12-18T05:37:31;-4.10;99.90
22161;DHT22;49035;48.812;11.762;2022-12-18T05:39:56;-4.20;99.90
22161;DHT22;49035;48.812;11.762;2022-12-18T05:42:22;-4.30;99.90
22161;DHT22;49035;48.812;11.762;2022-12-18T05:44:48;-4.20;99.90
22161;DHT22;49035;48.812;11.762;2022-12-18T05:47:13;-4.10;99.90
22161;DHT22;49035;48.812;11.762;2022-12-18T05:49:39;-4.20;99.90
22161;DHT22;49035;48.812;11.762;2022-12-18T05:52:05;-4.10;99.90
22161;DHT22;49035;48.812;11.762;2022-12-18T05:54:30;-4.20;99.90
22161;DHT22;49035;48.812;11.762;2022-12-18T05:56:57;-4.20;99.90
22161;DHT22;49035;48.812;11.762;2022-12-18T05:59:22;-4.20;99.90
22161;DHT22;49035;48.812;11.762;2022-12-18T06:01:48;-4.30;99.90
22161;DHT22;49035;48.812;11.762;2022-12-18T06:04:14;-4.20;99.90
22161;DHT22;49035;48.812;11.762;2022-12-18T06:06:39;-4.10;99.90
22161;DHT22;49035;48.812;11.762;2022-12-18T06:09:05;-4.20;99.90
22161;DHT22;49035;48.812;11.762;2022-12-18T06:11:34;-4.20;99.90
22161;DHT22;49035;48.812;11.762;2022-12-18T06:14:01;-4.20;99.90
22161;DHT22;49035;48.812;11.762;2022-12-18T06:16:28;-4.20;99.90
22161;DHT22;49035;48.812;11.762;2022-12-18T06:19:02;-4.10;99.90
22161;DHT22;49035;48.812;11.762;2022-12-18T06:21:29;-4.10;99.90
22161;DHT22;49035;48.812;11.762;2022-12-18T06:23:55;-4.20;99.90
22161;DHT22;49035;48.812;11.762;2022-12-18T06:26:21;-4.20;99.90
22161;DHT22;49035;48.812;11.762;2022-12-18T06:28:47;-4.20;99.90
22161;DHT22;49035;48.812;11.762;2022-12-18T06:31:12;-4.20;99.90
22161;DHT22;49035;48.812;11.762;2022-12-18T06:33:39;-4.20;99.90
22161;DHT22;49035;48.812;11.762;2022-12-18T06:36:10;-4.00;99.90
22161;DHT22;49035;48.812;11.762;2022-12-18T06:38:38;-4.10;99.90
22161;DHT22;49035;48.812;11.762;2022-12-18T06:41:08;-4.10;99.90
22161;DHT22;49035;48.812;11.762;2022-12-18T06:43:33;-4.10;99.90
22161;DHT22;49035;48.812;11.762;2022-12-18T06:46:00;-4.20;99.90
22161;DHT22;49035;48.812;11.762;2022-12-18T06:48:26;-4.10;99.90
22161;DHT22;49035;48.812;11.762;2022-12-18T06:50:52;-4.10;99.90
22161;DHT22;49035;48.812;11.762;2022-12-18T06:53:18;-4.20;99.90
22161;DHT22;49035;48.812;11.762;2022-12-18T06:55:43;-4.20;99.90
22161;DHT22;49035;48.812;11.762;2022-12-18T06:58:09;-4.10;99.90
22161;DHT22;49035;48.812;11.762;2022-12-18T07:00:35;-4.00;99.90
22161;DHT22;49035;48.812;11.762;2022-12-18T07:03:00;-4.00;99.90
22161;DHT22;49035;48.812;11.762;2022-12-18T07:05:26;-4.00;99.90
22161;DHT22;49035;48.812;11.762;2022-12-18T07:07:51;-4.10;99.90
22161;DHT22;49035;48.812;11.762;2022-12-18T07:10:17;-4.10;99.90
22161;DHT22;49035;48.812;11.762;2022-12-18T07:12:43;-4.00;99.90
22161;DHT22;49035;48.812;11.762;2022-12-18T07:15:09;-4.10;99.90
22161;DHT22;49035;48.812;11.762;2022-12-18T07:17:35;-4.10;99.90
22161;DHT22;49035;48.812;11.762;2022-12-18T07:20:00;-4.00;99.90
22161;DHT22;49035;48.812;11.762;2022-12-18T07:22:26;-4.00;99.90
22161;DHT22;49035;48.812;11.762;2022-12-18T07:24:52;-4.00;99.90
22161;DHT22;49035;48.812;11.762;2022-12-18T07:27:18;-4.00;99.90
22161;DHT22;49035;48.812;11.762;2022-12-18T07:29:44;-3.90;99.90
22161;DHT22;49035;48.812;11.762;2022-12-18T07:32:09;-4.00;99.90
22161;DHT22;49035;48.812;11.762;2022-12-18T07:34:35;-4.00;99.90
22161;DHT22;49035;48.812;11.762;2022-12-18T07:37:00;-4.00;99.90
22161;DHT22;49035;48.812;11.762;2022-12-18T07:39:26;-3.90;99.90
22161;DHT22;49035;48.812;11.762;2022-12-18T07:41:52;-3.80;99.90
22161;DHT22;49035;48.812;11.762;2022-12-18T07:44:36;-3.80;99.90
22161;DHT22;49035;48.812;11.762;2022-12-18T07:47:02;-3.80;99.90
22161;DHT22;49035;48.812;11.762;2022-12-18T07:49:28;-3.90;99.90
22161;DHT22;49035;48.812;11.762;2022-12-18T07:51:55;-3.80;99.90
22161;DHT22;49035;48.812;11.762;2022-12-18T07:54:22;-3.80;99.90
22161;DHT22;49035;48.812;11.762;2022-12-18T07:56:48;-3.90;99.90
22161;DHT22;49035;48.812;11.762;2022-12-18T07:59:13;-3.80;99.90
22161;DHT22;49035;48.812;11.762;2022-12-18T08:01:39;-3.80;99.90
22161;DHT22;49035;48.812;11.762;2022-12-18T08:04:05;-3.70;99.90
22161;DHT22;49035;48.812;11.762;2022-12-18T08:06:31;-3.60;99.90
22161;DHT22;49035;48.812;11.762;2022-12-18T08:08:57;-3.60;99.90
22161;DHT22;49035;48.812;11.762;2022-12-18T08:11:24;-3.70;99.90
22161;DHT22;49035;48.812;11.762;2022-12-18T08:13:51;-3.60;99.90
22161;DHT22;49035;48.812;11.762;2022-12-18T08:16:17;-3.60;99.90
22161;DHT22;49035;48.812;11.762;2022-12-18T08:18:43;-3.60;99.90
22161;DHT22;49035;48.812;11.762;2022-12-18T08:21:16;-3.60;99.90
22161;DHT22;49035;48.812;11.762;2022-12-18T08:23:43;-3.40;99.90
22161;DHT22;49035;48.812;11.762;2022-12-18T08:26:11;-3.30;99.90
22161;DHT22;49035;48.812;11.762;2022-12-18T08:28:37;-3.40;99.90
22161;DHT22;49035;48.812;11.762;2022-12-18T08:31:03;-3.30;99.90
22161;DHT22;49035;48.812;11.762;2022-12-18T08:33:29;-3.30;99.90
22161;DHT22;49035;48.812;11.762;2022-12-18T08:35:54;-3.10;99.90
22161;DHT22;49035;48.812;11.762;2022-12-18T08:38:20;-3.10;99.90
22161;DHT22;49035;48.812;11.762;2022-12-18T08:40:46;-3.00;99.90
22161;DHT22;49035;48.812;11.762;2022-12-18T08:43:12;-2.90;99.90
22161;DHT22;49035;48.812;11.762;2022-12-18T08:45:56;-2.80;99.90
22161;DHT22;49035;48.812;11.762;2022-12-18T08:48:22;-2.70;99.90
22161;DHT22;49035;48.812;11.762;2022-12-18T08:50:56;-2.70;99.90
22161;DHT22;49035;48.812;11.762;2022-12-18T08:53:25;-2.50;99.90
22161;DHT22;49035;48.812;11.762;2022-12-18T08:55:52;-2.40;99.90
22161;DHT22;49035;48.812;11.762;2022-12-18T08:58:18;-2.30;99.90
22161;DHT22;49035;48.812;11.762;2022-12-18T09:00:43;-2.20;99.90
22161;DHT22;49035;48.812;11.762;2022-12-18T09:03:13;-2.20;99.90
22161;DHT22;49035;48.812;11.762;2022-12-18T09:05:39;-2.30;99.90
22161;DHT22;49035;48.812;11.762;2022-12-18T09:08:05;-2.20;99.90
22161;DHT22;49035;48.812;11.762;2022-12-18T09:10:31;-2.00;99.90
22161;DHT22;49035;48.812;11.762;2022-12-18T09:12:57;-2.10;99.90
22161;DHT22;49035;48.812;11.762;2022-12-18T09:15:22;-2.10;99.90
22161;DHT22;49035;48.812;11.762;2022-12-18T09:17:48;-2.00;99.90
22161;DHT22;49035;48.812;11.762;2022-12-18T09:20:15;-1.90;99.90
22161;DHT22;49035;48.812;11.762;2022-12-18T09:22:41;-1.90;99.90
22161;DHT22;49035;48.812;11.762;2022-12-18T09:25:07;-1.80;99.90
22161;DHT22;49035;48.812;11.762;2022-12-18T09:27:34;-1.70;99.90
22161;DHT22;49035;48.812;11.762;2022-12-18T09:29:59;-1.60;99.90
22161;DHT22;49035;48.812;11.762;2022-12-18T09:32:25;-1.50;99.90
22161;DHT22;49035;48.812;11.762;2022-12-18T09:34:51;-1.40;99.90
22161;DHT22;49035;48.812;11.762;2022-12-18T09:37:16;-1.30;99.90
22161;DHT22;49035;48.812;11.762;2022-12-18T09:39:42;-1.30;99.90
22161;DHT22;49035;48.812;11.762;2022-12-18T09:42:17;-1.30;99.90
22161;DHT22;49035;48.812;11.762;2022-12-18T09:44:47;-1.10;99.90
22161;DHT22;49035;48.812;11.762;2022-12-18T09:49:47;-1.00;99.90
22161;DHT22;49035;48.812;11.762;2022-12-18T09:52:44;-1.30;99.90
22161;DHT22;49035;48.812;11.762;2022-12-18T09:55:24;-1.30;99.90
22161;DHT22;49035;48.812;11.762;2022-12-18T09:57:55;-1.10;99.90
22161;DHT22;49035;48.812;11.762;2022-12-18T10:00:24;-1.10;99.90
22161;DHT22;49035;48.812;11.762;2022-12-18T10:02:53;-1.10;99.90
22161;DHT22;49035;48.812;11.762;2022-12-18T10:05:35;-1.00;99.90
22161;DHT22;49035;48.812;11.762;2022-12-18T10:10:53;-1.00;99.90
22161;DHT22;49035;48.812;11.762;2022-12-18T10:16:09;-0.90;99.90
22161;DHT22;49035;48.812;11.762;2022-12-18T10:19:37;-0.90;99.90
22161;DHT22;49035;48.812;11.762;2022-12-18T10:27:16;-1.00;99.90
22161;DHT22;49035;48.812;11.762;2022-12-18T10:29:44;-1.10;99.90
22161;DHT22;49035;48.812;11.762;2022-12-18T10:32:21;-1.20;99.90
22161;DHT22;49035;48.812;11.762;2022-12-18T10:34:48;-1.10;99.90
22161;DHT22;49035;48.812;11.762;2022-12-18T10:37:20;-0.90;99.90
22161;DHT22;49035;48.812;11.762;2022-12-18T10:39:47;-1.00;99.90
22161;DHT22;49035;48.812;11.762;2022-12-18T10:42:29;-0.90;99.90
22161;DHT22;49035;48.812;11.762;2022-12-18T10:45:13;-0.60;99.90
22161;DHT22;49035;48.812;11.762;2022-12-18T10:47:48;-0.10;99.90
22161;DHT22;49035;48.812;11.762;2022-12-18T10:50:35;-0.30;99.90
22161;DHT22;49035;48.812;11.762;2022-12-18T10:53:04;-0.80;99.90
22161;DHT22;49035;48.812;11.762;2022-12-18T10:55:37;-0.70;99.90
22161;DHT22;49035;48.812;11.762;2022-12-18T11:06:23;0.10;99.90
22161;DHT22;49035;48.812;11.762;2022-12-18T11:09:21;0.40;99.90
22161;DHT22;49035;48.812;11.762;2022-12-18T11:11:56;0.50;99.90
22161;DHT22;49035;48.812;11.762;2022-12-18T11:14:34;0.20;99.90
22161;DHT22;49035;48.812;11.762;2022-12-18T11:17:21;0.40;99.90
22161;DHT22;49035;48.812;11.762;2022-12-18T11:19:58;0.50;99.90
22161;DHT22;49035;48.812;11.762;2022-12-18T11:22:31;0.70;99.90
22161;DHT22;49035;48.812;11.762;2022-12-18T11:27:39;0.50;99.90
22161;DHT22;49035;48.812;11.762;2022-12-18T11:30:24;0.60;99.90
22161;DHT22;49035;48.812;11.762;2022-12-18T11:33:06;0.50;99.90
22161;DHT22;49035;48.812;11.762;2022-12-18T11:35:49;0.40;99.90
22161;DHT22;49035;48.812;11.762;2022-12-18T11:38:24;0.20;99.90
22161;DHT22;49035;48.812;11.762;2022-12-18T11:41:21;-0.10;99.90
22161;DHT22;49035;48.812;11.762;2022-12-18T11:44:00;0.20;99.90
22161;DHT22;49035;48.812;11.762;2022-12-18T11:46:40;0.00;99.90
22161;DHT22;49035;48.812;11.762;2022-12-18T11:49:26;0.10;99.90
22161;DHT22;49035;48.812;11.762;2022-12-18T11:52:00;0.10;99.90
22161;DHT22;49035;48.812;11.762;2022-12-18T11:54:27;0.20;99.90
22161;DHT22;49035;48.812;11.762;2022-12-18T11:57:02;0.00;99.90
22161;DHT22;49035;48.812;11.762;2022-12-18T11:59:33;-0.20;99.90
22161;DHT22;49035;48.812;11.762;2022-12-18T12:02:31;-0.10;99.90
22161;DHT22;49035;48.812;11.762;2022-12-18T12:05:24;-0.10;99.90
22161;DHT22;49035;48.812;11.762;2022-12-18T12:13:45;0.70;99.90
22161;DHT22;49035;48.812;11.762;2022-12-18T12:16:21;0.20;99.90
22161;DHT22;49035;48.812;11.762;2022-12-18T12:21:35;-0.30;99.90
22161;DHT22;49035;48.812;11.762;2022-12-18T12:24:26;-0.20;99.90
22161;DHT22;49035;48.812;11.762;2022-12-18T12:40:24;0.30;99.90
22161;DHT22;49035;48.812;11.762;2022-12-18T12:42:59;0.40;99.90
22161;DHT22;49035;48.812;11.762;2022-12-18T12:51:28;0.20;99.90
22161;DHT22;49035;48.812;11.762;2022-12-18T12:53:56;0.00;99.90
22161;DHT22;49035;48.812;11.762;2022-12-18T12:56:26;-0.20;99.90
22161;DHT22;49035;48.812;11.762;2022-12-18T13:01:41;-0.30;99.90
22161;DHT22;49035;48.812;11.762;2022-12-18T13:04:20;-0.40;99.90
22161;DHT22;49035;48.812;11.762;2022-12-18T13:06:55;-0.60;99.90
22161;DHT22;49035;48.812;11.762;2022-12-18T13:09:23;-0.60;99.90
22161;DHT22;49035;48.812;11.762;2022-12-18T13:11:49;-0.70;99.90
22161;DHT22;49035;48.812;11.762;2022-12-18T13:14:39;-0.60;99.90
22161;DHT22;49035;48.812;11.762;2022-12-18T13:19:51;-0.50;99.90
22161;DHT22;49035;48.812;11.762;2022-12-18T13:22:22;-0.60;99.90
22161;DHT22;49035;48.812;11.762;2022-12-18T13:24:48;-0.50;99.90
22161;DHT22;49035;48.812;11.762;2022-12-18T13:28:20;-0.50;99.90
22161;DHT22;49035;48.812;11.762;2022-12-18T13:38:22;-1.10;99.90
22161;DHT22;49035;48.812;11.762;2022-12-18T13:45:59;-1.50;99.90
22161;DHT22;49035;48.812;11.762;2022-12-18T13:48:27;-1.60;99.90
22161;DHT22;49035;48.812;11.762;2022-12-18T13:51:04;-1.70;99.90
22161;DHT22;49035;48.812;11.762;2022-12-18T13:56:25;-1.80;99.90
22161;DHT22;49035;48.812;11.762;2022-12-18T13:59:13;-1.90;99.90
22161;DHT22;49035;48.812;11.762;2022-12-18T14:01:48;-1.90;99.90
22161;DHT22;49035;48.812;11.762;2022-12-18T14:06:51;-2.20;99.90
22161;DHT22;49035;48.812;11.762;2022-12-18T14:09:23;-2.40;99.90
22161;DHT22;49035;48.812;11.762;2022-12-18T14:11:50;-2.50;99.90
22161;DHT22;49035;48.812;11.762;2022-12-18T14:14:17;-2.50;99.90
22161;DHT22;49035;48.812;11.762;2022-12-18T14:16:44;-2.60;99.90
22161;DHT22;49035;48.812;11.762;2022-12-18T14:19:16;-2.60;99.90
22161;DHT22;49035;48.812;11.762;2022-12-18T14:21:49;-2.70;99.90
22161;DHT22;49035;48.812;11.762;2022-12-18T14:24:18;-2.70;99.90
22161;DHT22;49035;48.812;11.762;2022-12-18T14:26:45;-2.80;99.90
22161;DHT22;49035;48.812;11.762;2022-12-18T14:29:20;-2.80;99.90
22161;DHT22;49035;48.812;11.762;2022-12-18T14:31:46;-2.90;99.90
22161;DHT22;49035;48.812;11.762;2022-12-18T14:34:28;-3.00;99.90
22161;DHT22;49035;48.812;11.762;2022-12-18T14:36:54;-3.00;99.90
22161;DHT22;49035;48.812;11.762;2022-12-18T14:39:21;-3.10;99.90
22161;DHT22;49035;48.812;11.762;2022-12-18T14:41:48;-3.10;99.90
22161;DHT22;49035;48.812;11.762;2022-12-18T14:44:14;-3.20;99.90
22161;DHT22;49035;48.812;11.762;2022-12-18T14:46:43;-3.40;99.90
22161;DHT22;49035;48.812;11.762;2022-12-18T14:49:32;-3.50;99.90
22161;DHT22;49035;48.812;11.762;2022-12-18T14:52:03;-3.70;99.90
22161;DHT22;49035;48.812;11.762;2022-12-18T14:54:29;-3.80;99.90
22161;DHT22;49035;48.812;11.762;2022-12-18T14:57:25;-3.90;99.90
22161;DHT22;49035;48.812;11.762;2022-12-18T14:59:50;-3.90;99.90
22161;DHT22;49035;48.812;11.762;2022-12-18T15:02:27;-3.90;99.90
22161;DHT22;49035;48.812;11.762;2022-12-18T15:05:14;-4.00;99.90
22161;DHT22;49035;48.812;11.762;2022-12-18T15:07:52;-4.20;99.90
22161;DHT22;49035;48.812;11.762;2022-12-18T15:10:47;-4.30;99.90
22161;DHT22;49035;48.812;11.762;2022-12-18T15:13:22;-4.40;99.90
22161;DHT22;49035;48.812;11.762;2022-12-18T15:15:48;-4.50;99.90
22161;DHT22;49035;48.812;11.762;2022-12-18T15:18:24;-4.60;99.90
22161;DHT22;49035;48.812;11.762;2022-12-18T15:21:07;-4.60;99.90
22161;DHT22;49035;48.812;11.762;2022-12-18T15:23:51;-4.80;99.90
22161;DHT22;49035;48.812;11.762;2022-12-18T15:26:20;-5.10;99.90
22161;DHT22;49035;48.812;11.762;2022-12-18T15:28:56;-5.30;99.90
22161;DHT22;49035;48.812;11.762;2022-12-18T15:31:28;-5.40;99.90
22161;DHT22;49035;48.812;11.762;2022-12-18T15:36:23;-5.70;99.90
22161;DHT22;49035;48.812;11.762;2022-12-18T15:38:54;-5.50;99.90
22161;DHT22;49035;48.812;11.762;2022-12-18T15:41:21;-5.50;99.90
22161;DHT22;49035;48.812;11.762;2022-12-18T15:43:51;-5.70;99.90
22161;DHT22;49035;48.812;11.762;2022-12-18T15:46:19;-5.80;99.90
22161;DHT22;49035;48.812;11.762;2022-12-18T15:48:50;-5.60;99.90
22161;DHT22;49035;48.812;11.762;2022-12-18T15:51:57;-5.40;99.90
22161;DHT22;49035;48.812;11.762;2022-12-18T15:54:24;-5.30;99.90
22161;DHT22;49035;48.812;11.762;2022-12-18T15:57:10;-5.20;99.90
22161;DHT22;49035;48.812;11.762;2022-12-18T15:59:48;-4.90;99.90
22161;DHT22;49035;48.812;11.762;2022-12-18T16:02:16;-4.90;99.90
22161;DHT22;49035;48.812;11.762;2022-12-18T16:04:42;-4.80;99.90
22161;DHT22;49035;48.812;11.762;2022-12-18T16:07:09;-4.80;99.90
22161;DHT22;49035;48.812;11.762;2022-12-18T16:09:35;-4.90;99.90
22161;DHT22;49035;48.812;11.762;2022-12-18T16:12:01;-4.80;99.90
22161;DHT22;49035;48.812;11.762;2022-12-18T16:14:29;-4.70;99.90
22161;DHT22;49035;48.812;11.762;2022-12-18T16:16:56;-4.70;99.90
22161;DHT22;49035;48.812;11.762;2022-12-18T16:19:23;-4.80;99.90
22161;DHT22;49035;48.812;11.762;2022-12-18T16:21:50;-4.80;99.90
22161;DHT22;49035;48.812;11.762;2022-12-18T16:24:18;-4.90;99.90
22161;DHT22;49035;48.812;11.762;2022-12-18T16:26:44;-4.90;99.90
22161;DHT22;49035;48.812;11.762;2022-12-18T16:29:11;-5.00;99.90
22161;DHT22;49035;48.812;11.762;2022-12-18T16:31:40;-5.00;99.90
22161;DHT22;49035;48.812;11.762;2022-12-18T16:34:32;-5.20;99.90
22161;DHT22;49035;48.812;11.762;2022-12-18T16:37:01;-5.30;99.90
22161;DHT22;49035;48.812;11.762;2022-12-18T16:39:27;-5.40;99.90
22161;DHT22;49035;48.812;11.762;2022-12-18T16:41:53;-5.70;99.90
22161;DHT22;49035;48.812;11.762;2022-12-18T16:44:19;-5.60;99.90
22161;DHT22;49035;48.812;11.762;2022-12-18T16:46:45;-5.70;99.90
22161;DHT22;49035;48.812;11.762;2022-12-18T16:49:13;-5.80;99.90
22161;DHT22;49035;48.812;11.762;2022-12-18T16:51:41;-5.70;99.90
22161;DHT22;49035;48.812;11.762;2022-12-18T16:54:07;-5.70;99.90
22161;DHT22;49035;48.812;11.762;2022-12-18T16:56:33;-5.80;99.90
22161;DHT22;49035;48.812;11.762;2022-12-18T16:58:59;-5.90;99.90
22161;DHT22;49035;48.812;11.762;2022-12-18T17:01:27;-6.10;99.90
22161;DHT22;49035;48.812;11.762;2022-12-18T17:04:02;-6.40;99.90
22161;DHT22;49035;48.812;11.762;2022-12-18T17:06:30;-6.60;99.90
22161;DHT22;49035;48.812;11.762;2022-12-18T17:08:58;-6.50;99.90
22161;DHT22;49035;48.812;11.762;2022-12-18T17:11:25;-6.60;99.90
22161;DHT22;49035;48.812;11.762;2022-12-18T17:13:51;-6.60;99.90
22161;DHT22;49035;48.812;11.762;2022-12-18T17:16:18;-6.70;99.90
22161;DHT22;49035;48.812;11.762;2022-12-18T17:18:44;-6.70;99.90